CheckWX is a tool to help pilots better visualize weather data.  It is not intended as a substitute for an official pre-flight weather briefing.

18:12:56 UTC

2D5 METAR
Oakes Municipal Airport
Oakes, North Dakota, USA
Current

18 mins ago

K2D5 211755Z AUTO 01008KT 10SM CLR 21/21 A3020 RMK AO2 PWINO
Observed
Jul-21 @ 17:55 UTC
Wind
  • 010° at 8 KTS
Visibility
10 SM
Flight Rules
VFR
Cloud Levels
  • Clear skies
Temperature
21°C / 70°F
Dewpoint
21°C / 70°F
Humidity
100%
Altimeter
30.2" Hg
Pressure
1022.72 hPa
Previous

38 mins ago

K2D5 211735Z AUTO 35008KT 10SM CLR 21/21 A3020 RMK AO2 PWINO
Observed
Jul-21 @ 17:35 UTC
Wind
  • 350° at 8 KTS
Visibility
10 SM
Flight Rules
VFR
Cloud Levels
  • Clear skies
Temperature
21°C / 70°F
Dewpoint
21°C / 70°F
Humidity
100%
Altimeter
30.2" Hg
Pressure
1022.72 hPa
Previous

58 mins ago

K2D5 211715Z AUTO 01007KT 10SM CLR 20/20 A3020 RMK AO2 PWINO
Observed
Jul-21 @ 17:15 UTC
Wind
  • 010° at 7 KTS
Visibility
10 SM
Flight Rules
VFR
Cloud Levels
  • Clear skies
Temperature
20°C / 68°F
Dewpoint
20°C / 68°F
Humidity
100%
Altimeter
30.2" Hg
Pressure
1022.72 hPa